Main page
METAR-TAF:

METAR-TAF

Airports :

Libreville International Airport

Libreville, Gabon

latitude: 00-27N, longitude: 009-25E, elevation: 12 m

Current weather observation

The report was made 1 hour and 40 minutes ago, at 22:00 UTC
Wind 8 kt from the South/Southwest, varying between South and West/Southwest
Temperature 26°C
Humidity 84%
Pressure 1013 hPa
Visibility: 9000 m
Scattered clouds at a height of 1400 ft
Broken clouds at a height of 1900 ft

METAR: FOOL 232200Z 21008KT 170V250 9000 SCT014 BKN019 26/23 Q1013 NOSIG

Time: 00:40 (23:40 UTC)

Forecast

The report was made 6 hours and 40 minutes ago, at 17:00 UTC
Forecast valid from 23 at 18 UTC to 24 at 24 UTC
Wind 7 kt from the West/Southwest
Visibility 10 km or more
Scattered clouds at a height of 1200 ft
Broken clouds at a height of 3000 ft

TAF: FOOL 231700Z 2318/2424 24007KT 9999 SCT012 BKN030

Weather observations and forecasts of more than 4000 airports (METAR and TAF reports).

The available stations are represented by yellow and red dots on the map.

Hover mouse over dot to see the name of the station.

Then click to see weather observations and forecasts.

To change the map : click on the green buttons with a black cross to zoom in, on the green button with a dash to zoom out, or on the green arrows for adjacent maps.


METAR-TAF: